createdAt,value
2018-06-01T00:02:24.960Z,45.90
2018-06-01T00:04:52.602Z,46.40
2018-06-01T00:07:20.175Z,46.20
2018-06-01T00:09:47.782Z,46.30
2018-06-01T00:12:15.364Z,45.90
2018-06-01T00:14:42.967Z,46.20
2018-06-01T00:17:11.340Z,45.10
2018-06-01T00:19:38.916Z,45.10
2018-06-01T00:22:06.493Z,39.20
2018-06-01T00:24:34.092Z,37.30
2018-06-01T00:27:02.425Z,34.60
2018-06-01T00:29:29.981Z,34.50
2018-06-01T00:31:57.604Z,34.20
2018-06-01T00:34:25.190Z,36.20
2018-06-01T00:36:53.615Z,37.90
2018-06-01T00:39:21.260Z,37.90
2018-06-01T00:41:48.845Z,37.90
2018-06-01T00:44:16.415Z,38.30
2018-06-01T00:46:44.778Z,38.30
2018-06-01T00:49:12.363Z,38.30
2018-06-01T00:51:40.699Z,38.60
2018-06-01T00:54:08.299Z,38.60
2018-06-01T00:56:35.871Z,38.60
2018-06-01T00:59:03.430Z,39.20
2018-06-01T01:01:31.032Z,39.10
2018-06-01T01:03:58.596Z,39.40
2018-06-01T01:06:26.201Z,39.00
2018-06-01T01:08:54.648Z,40.20
2018-06-01T01:11:22.269Z,40.10
2018-06-01T01:13:50.608Z,40.80
2018-06-01T01:16:18.214Z,40.80
2018-06-01T01:18:45.790Z,40.20
2018-06-01T01:21:13.358Z,40.80
2018-06-01T01:23:40.983Z,41.30
2018-06-01T01:26:08.554Z,42.40
2018-06-01T01:28:36.114Z,42.60
2018-06-01T01:31:03.707Z,42.80
2018-06-01T01:33:31.292Z,43.00
2018-06-01T01:35:58.866Z,42.60
2018-06-01T01:38:26.467Z,43.20
2018-06-01T01:40:58.606Z,42.60
2018-06-01T01:43:27.101Z,42.00
2018-06-01T01:45:54.702Z,41.90
2018-06-01T01:48:22.310Z,42.90
2018-06-01T01:50:49.902Z,44.20
2018-06-01T01:53:17.484Z,44.90
2018-06-01T01:55:45.034Z,44.90
2018-06-01T01:58:12.640Z,45.90
2018-06-01T02:00:40.237Z,46.00
2018-06-01T02:03:07.815Z,46.70
2018-06-01T02:05:35.406Z,47.10
2018-06-01T02:08:02.974Z,47.70
2018-06-01T02:10:30.552Z,48.60
2018-06-01T02:12:58.154Z,48.40
2018-06-01T02:15:25.758Z,49.30
2018-06-01T02:17:53.363Z,49.00
2018-06-01T02:20:21.021Z,49.60
2018-06-01T02:22:48.591Z,50.80
2018-06-01T02:25:16.156Z,51.20
2018-06-01T02:27:43.753Z,50.90
2018-06-01T02:30:11.352Z,50.90
2018-06-01T02:32:39.684Z,50.80
2018-06-01T02:35:07.280Z,50.80
2018-06-01T02:37:34.853Z,51.40
2018-06-01T02:40:02.431Z,51.20
2018-06-01T02:42:30.032Z,52.20
2018-06-01T02:44:57.662Z,51.00
2018-06-01T02:47:25.276Z,49.80
2018-06-01T02:49:52.937Z,49.80
2018-06-01T02:52:21.280Z,51.10
2018-06-01T02:54:48.859Z,50.30
2018-06-01T02:57:16.464Z,49.30
2018-06-01T02:59:44.034Z,49.90
2018-06-01T03:02:11.608Z,49.40
2018-06-01T03:04:39.200Z,50.00
2018-06-01T03:07:14.558Z,50.50
2018-06-01T03:09:42.191Z,50.50
2018-06-01T03:12:09.797Z,51.00
2018-06-01T03:14:38.146Z,53.30
2018-06-01T03:17:05.744Z,52.50
2018-06-01T03:19:33.312Z,52.30
2018-06-01T03:22:00.880Z,52.70
2018-06-01T03:24:28.480Z,54.00
2018-06-01T03:26:56.088Z,54.80
2018-06-01T03:29:23.708Z,54.80
2018-06-01T03:31:51.328Z,54.80
2018-06-01T03:34:18.917Z,54.70
2018-06-01T03:36:46.479Z,54.40
2018-06-01T03:39:14.078Z,54.90
2018-06-01T03:41:41.656Z,54.60
2018-06-01T03:44:09.227Z,54.90
2018-06-01T03:46:36.836Z,54.80
2018-06-01T03:49:04.405Z,53.30
2018-06-01T03:51:31.979Z,50.00
2018-06-01T03:53:59.581Z,47.80
2018-06-01T03:56:27.930Z,47.30
2018-06-01T03:58:55.523Z,47.30
2018-06-01T04:01:23.144Z,47.70
2018-06-01T04:03:50.772Z,47.70
2018-06-01T04:06:18.353Z,47.10
2018-06-01T04:08:46.055Z,47.20
2018-06-01T04:11:13.636Z,47.70
2018-06-01T04:13:41.214Z,40.90
2018-06-01T04:16:08.811Z,45.60
2018-06-01T04:18:36.381Z,45.50
2018-06-01T04:21:03.959Z,44.70
2018-06-01T04:23:31.544Z,46.30
2018-06-01T04:25:59.142Z,45.30
2018-06-01T04:28:27.499Z,45.20
2018-06-01T04:30:55.134Z,45.20
2018-06-01T04:33:22.741Z,44.50
2018-06-01T04:35:50.315Z,43.90
2018-06-01T04:38:17.938Z,42.70
2018-06-01T04:40:47.108Z,42.50
2018-06-01T04:43:14.674Z,42.50
2018-06-01T04:45:42.292Z,38.40
2018-06-01T04:48:11.143Z,36.60
2018-06-01T04:50:38.716Z,36.50
2018-06-01T04:53:06.297Z,32.10
2018-06-01T04:55:33.866Z,30.40
2018-06-01T04:58:01.417Z,29.80
2018-06-01T05:00:29.012Z,28.20
2018-06-01T05:02:56.594Z,28.00
2018-06-01T05:05:24.295Z,26.00
2018-06-01T05:07:52.699Z,25.60
2018-06-01T05:10:21.036Z,22.80
2018-06-01T05:12:48.595Z,22.80
2018-06-01T05:15:16.192Z,23.80
2018-06-01T05:17:43.755Z,25.20
2018-06-01T05:20:11.381Z,23.70
2018-06-01T05:22:39.751Z,21.40
2018-06-01T05:25:07.323Z,21.30
2018-06-01T05:27:34.882Z,22.90
2018-06-01T05:30:02.465Z,20.90
2018-06-01T05:32:30.034Z,21.80
2018-06-01T05:34:57.620Z,20.40
2018-06-01T05:37:25.246Z,19.70
2018-06-01T05:39:52.856Z,19.50
2018-06-01T05:42:20.429Z,17.80
2018-06-01T05:44:48.006Z,18.20
2018-06-01T05:47:15.566Z,18.20
2018-06-01T05:49:43.249Z,18.70
2018-06-01T05:52:10.901Z,19.60
2018-06-01T05:54:38.475Z,19.60
2018-06-01T05:57:06.043Z,19.70
2018-06-01T05:59:33.634Z,19.20
2018-06-01T06:02:01.199Z,18.70
2018-06-01T06:04:28.764Z,19.70
2018-06-01T06:06:56.410Z,19.40
2018-06-01T06:09:23.998Z,20.60
2018-06-01T06:11:51.594Z,20.40
2018-06-01T06:14:19.266Z,20.90
2018-06-01T06:16:46.836Z,20.60
2018-06-01T06:19:14.397Z,20.30
2018-06-01T06:21:42.044Z,20.90
2018-06-01T06:24:09.728Z,22.10
2018-06-01T06:26:37.281Z,21.90
2018-06-01T06:29:05.648Z,23.10
2018-06-01T06:31:34.061Z,23.20
2018-06-01T06:34:01.584Z,23.20
2018-06-01T06:36:29.174Z,23.20
2018-06-01T06:38:56.744Z,23.10
2018-06-01T06:41:24.530Z,23.80
2018-06-01T06:43:52.163Z,22.10
2018-06-01T06:46:19.735Z,24.60
2018-06-01T06:48:47.286Z,23.40
2018-06-01T06:51:15.644Z,22.40
2018-06-01T06:53:43.245Z,22.40
2018-06-01T06:56:11.587Z,21.10
2018-06-01T06:58:39.172Z,21.10
2018-06-01T07:01:06.740Z,18.80
2018-06-01T07:03:34.304Z,17.60
2018-06-01T07:06:01.904Z,15.30
2018-06-01T07:08:29.485Z,15.30
2018-06-01T07:10:57.078Z,13.80
2018-06-01T07:13:25.467Z,12.20
2018-06-01T07:15:53.097Z,12.20
2018-06-01T07:18:20.666Z,12.30
2018-06-01T07:20:48.263Z,12.10
2018-06-01T07:23:15.836Z,12.10
2018-06-01T07:25:43.401Z,10.20
2018-06-01T07:28:11.002Z,10.40
2018-06-01T07:30:39.324Z,9.60
2018-06-01T07:33:06.895Z,9.60
2018-06-01T07:35:34.484Z,9.80
2018-06-01T07:38:02.039Z,9.70
2018-06-01T07:40:29.600Z,9.30
2018-06-01T07:42:57.208Z,8.50
2018-06-01T07:45:24.788Z,9.10
2018-06-01T07:47:52.372Z,8.40
2018-06-01T07:50:19.973Z,7.80
2018-06-01T07:52:48.287Z,7.50
2018-06-01T07:55:15.860Z,7.50
2018-06-01T07:57:43.456Z,6.80
2018-06-01T08:00:11.062Z,6.80
2018-06-01T08:02:38.680Z,6.70
2018-06-01T08:05:07.008Z,6.70
2018-06-01T08:07:34.553Z,6.70
2018-06-01T08:10:02.111Z,6.50
2018-06-01T08:12:29.703Z,7.70
2018-06-01T08:14:57.271Z,7.00
2018-06-01T08:17:24.900Z,8.50
2018-06-01T08:19:52.551Z,8.10
2018-06-01T08:22:20.122Z,8.50
2018-06-01T08:24:47.688Z,8.30
2018-06-01T08:27:15.280Z,8.80
2018-06-01T08:29:42.936Z,8.40
2018-06-01T08:32:10.510Z,8.60
2018-06-01T08:34:38.108Z,9.10
2018-06-01T08:37:05.684Z,9.40
2018-06-01T08:39:33.290Z,8.60
2018-06-01T08:42:01.625Z,8.60
2018-06-01T08:44:29.195Z,8.00
2018-06-01T08:46:56.778Z,8.70
2018-06-01T08:49:24.485Z,8.90
2018-06-01T08:51:52.830Z,9.00
2018-06-01T08:54:20.400Z,9.00
2018-06-01T08:56:48.007Z,9.60
2018-06-01T08:59:15.599Z,9.20
2018-06-01T09:01:43.157Z,10.10
2018-06-01T09:04:10.756Z,9.20
2018-06-01T09:06:38.319Z,8.40
2018-06-01T09:09:06.646Z,7.50
2018-06-01T09:11:34.227Z,7.50
2018-06-01T09:14:01.810Z,6.40
2018-06-01T09:16:29.367Z,7.20
2018-06-01T09:18:56.996Z,7.70
2018-06-01T09:21:25.363Z,6.90
2018-06-01T09:23:53.050Z,6.90
2018-06-01T09:26:20.641Z,7.70
2018-06-01T09:28:48.969Z,6.00
2018-06-01T09:31:16.526Z,5.70
2018-06-01T09:33:44.121Z,6.60
2018-06-01T09:36:11.710Z,6.10
2018-06-01T09:38:39.294Z,6.00
2018-06-01T09:41:06.874Z,6.90
2018-06-01T09:43:34.436Z,7.40
2018-06-01T09:46:02.011Z,6.90
2018-06-01T09:48:29.607Z,6.70
2018-06-01T09:50:57.196Z,6.80
2018-06-01T09:53:24.783Z,8.50
2018-06-01T09:55:52.415Z,9.70
2018-06-01T09:58:20.754Z,9.60
2018-06-01T10:00:54.100Z,9.60
2018-06-01T10:03:21.756Z,10.20
2018-06-01T10:05:49.319Z,8.80
2018-06-01T10:08:16.908Z,9.30
2018-06-01T10:10:44.474Z,9.90
2018-06-01T10:13:12.069Z,9.20
2018-06-01T10:15:40.532Z,9.40
2018-06-01T10:18:08.050Z,9.40
2018-06-01T10:20:35.669Z,8.50
2018-06-01T10:23:03.258Z,8.70
2018-06-01T10:25:30.822Z,9.40
2018-06-01T10:27:58.386Z,9.80
2018-06-01T10:30:25.992Z,10.60
2018-06-01T10:32:53.611Z,10.50
2018-06-01T10:35:21.203Z,10.40
2018-06-01T10:37:48.840Z,8.40
2018-06-01T10:40:17.208Z,7.50
2018-06-01T10:42:44.805Z,7.50
2018-06-01T10:45:12.514Z,7.40
2018-06-01T10:47:40.068Z,7.00
2018-06-01T10:50:07.632Z,7.20
2018-06-01T10:52:35.989Z,7.10
2018-06-01T10:55:03.579Z,7.10
2018-06-01T10:57:31.143Z,6.40
2018-06-01T10:59:58.743Z,6.50
2018-06-01T11:02:27.108Z,6.20
2018-06-01T11:04:54.800Z,6.10
2018-06-01T11:07:22.467Z,6.20
2018-06-01T11:09:50.788Z,7.20
2018-06-01T11:12:18.361Z,7.20
2018-06-01T11:14:45.946Z,6.10
2018-06-01T11:17:13.517Z,6.80
2018-06-01T11:19:41.110Z,5.60
2018-06-01T11:22:08.769Z,5.30
2018-06-01T11:24:36.360Z,6.60
2018-06-01T11:27:03.951Z,7.60
2018-06-01T11:29:31.539Z,8.40
2018-06-01T11:31:59.094Z,9.20
2018-06-01T11:34:26.698Z,10.20
2018-06-01T11:36:55.144Z,10.20
2018-06-01T11:39:22.772Z,10.20
2018-06-01T11:41:50.412Z,11.00
2018-06-01T11:44:18.011Z,11.50
2018-06-01T11:46:46.349Z,10.80
2018-06-01T11:49:13.915Z,10.80
2018-06-01T11:51:41.604Z,10.60
2018-06-01T11:54:09.172Z,11.30
2018-06-01T11:56:36.734Z,10.00
2018-06-01T11:59:04.322Z,10.50
2018-06-01T12:01:31.921Z,11.10
2018-06-01T12:03:59.503Z,10.60
2018-06-01T12:06:27.152Z,12.00
2018-06-01T12:08:54.817Z,11.90
2018-06-01T12:11:22.526Z,11.90
2018-06-01T12:13:50.164Z,12.40
2018-06-01T12:16:17.722Z,12.40
2018-06-01T12:18:45.292Z,12.60
2018-06-01T12:21:12.887Z,13.20
2018-06-01T12:23:40.463Z,11.70
2018-06-01T12:26:08.027Z,11.10
2018-06-01T12:28:35.617Z,11.40
2018-06-01T12:31:03.207Z,9.90
2018-06-01T12:33:30.785Z,10.80
2018-06-01T12:35:58.559Z,10.20
2018-06-01T12:38:26.452Z,10.90
2018-06-01T12:40:54.078Z,10.70
2018-06-01T12:43:21.692Z,10.90
2018-06-01T12:45:49.263Z,11.10
2018-06-01T12:48:16.834Z,12.20
2018-06-01T12:50:44.428Z,11.70
2018-06-01T12:53:12.762Z,12.10
2018-06-01T12:55:40.336Z,12.10
2018-06-01T12:58:07.948Z,11.40
2018-06-01T13:00:36.290Z,12.10
2018-06-01T13:03:03.858Z,12.10
2018-06-01T13:05:31.463Z,11.90
2018-06-01T13:07:59.028Z,12.20
2018-06-01T13:10:26.616Z,13.00
2018-06-01T13:12:54.468Z,15.10
2018-06-01T13:15:22.148Z,16.80
2018-06-01T13:17:49.728Z,13.50
2018-06-01T13:20:17.341Z,13.60
2018-06-01T13:22:45.700Z,18.20
2018-06-01T13:25:13.287Z,18.20
2018-06-01T13:27:40.904Z,46.20
2018-06-01T13:30:08.551Z,99.90
2018-06-01T13:32:36.894Z,99.90
2018-06-01T13:35:04.511Z,99.90
2018-06-01T13:37:32.859Z,99.90
2018-06-01T13:40:00.446Z,99.90
2018-06-01T13:42:28.130Z,99.90
2018-06-01T13:44:55.716Z,99.90
2018-06-01T13:47:24.500Z,99.90
2018-06-01T13:49:52.908Z,99.90
2018-06-01T13:52:20.520Z,99.90
2018-06-01T13:54:48.091Z,99.90
2018-06-01T13:57:15.728Z,99.90
2018-06-01T13:59:44.090Z,99.90
2018-06-01T14:02:11.698Z,99.90
2018-06-01T14:04:40.080Z,99.90
2018-06-01T14:07:08.435Z,99.90
2018-06-01T14:09:36.008Z,99.90
2018-06-01T14:12:03.663Z,99.90
2018-06-01T14:14:31.239Z,99.90
2018-06-01T14:16:58.819Z,99.90
2018-06-01T14:19:26.490Z,99.90
2018-06-01T14:21:54.177Z,99.90
2018-06-01T14:24:21.796Z,99.90
2018-06-01T14:26:50.199Z,99.90
2018-06-01T14:29:18.536Z,99.90
2018-06-01T14:31:46.133Z,99.90
2018-06-01T14:34:13.743Z,99.90
2018-06-01T14:36:41.354Z,99.90
2018-06-01T14:39:08.935Z,99.90
2018-06-01T14:41:36.545Z,99.90
2018-06-01T14:44:04.118Z,99.90
2018-06-01T14:46:32.456Z,99.90
2018-06-01T14:49:00.052Z,99.90
2018-06-01T14:51:27.672Z,99.90
2018-06-01T14:53:56.180Z,99.90
2018-06-01T14:56:23.868Z,99.90
2018-06-01T14:58:51.481Z,99.90
2018-06-01T15:01:20.027Z,99.90
2018-06-01T15:03:48.260Z,99.90
2018-06-01T15:06:16.688Z,99.90
2018-06-01T15:08:45.118Z,99.90
2018-06-01T15:11:12.742Z,99.90
2018-06-01T15:13:40.358Z,99.90
2018-06-01T15:16:07.922Z,99.90
2018-06-01T15:18:36.330Z,99.90
2018-06-01T15:21:03.972Z,99.90
2018-06-01T15:23:32.484Z,99.90
2018-06-01T15:26:00.135Z,99.90
2018-06-01T15:28:28.579Z,99.90
2018-06-01T15:30:56.680Z,99.90
2018-06-01T15:33:24.302Z,99.90
2018-06-01T15:35:52.767Z,99.90
2018-06-01T15:38:20.344Z,99.90
2018-06-01T15:40:48.040Z,99.90
2018-06-01T15:43:15.560Z,99.90
2018-06-01T15:45:43.141Z,99.90
2018-06-01T15:48:10.779Z,99.90
2018-06-01T15:50:38.423Z,99.90
2018-06-01T15:53:07.550Z,99.90
2018-06-01T15:55:35.155Z,99.90
2018-06-01T15:58:03.932Z,99.90
2018-06-01T16:00:31.474Z,99.90
2018-06-01T16:02:59.065Z,99.90
2018-06-01T16:05:27.714Z,99.90
2018-06-01T16:07:55.301Z,99.90
2018-06-01T16:10:22.895Z,99.90
2018-06-01T16:12:51.232Z,99.90
2018-06-01T16:15:18.799Z,99.90
2018-06-01T16:17:46.396Z,99.90
2018-06-01T16:20:13.967Z,99.90
2018-06-01T16:22:41.728Z,99.90
2018-06-01T16:25:09.353Z,99.90
2018-06-01T16:27:37.833Z,99.90
2018-06-01T16:30:06.005Z,99.90
2018-06-01T16:32:33.610Z,99.90
2018-06-01T16:35:01.974Z,99.90
2018-06-01T16:37:29.540Z,99.90
2018-06-01T16:39:57.197Z,99.90
2018-06-01T16:42:25.502Z,99.90
2018-06-01T16:44:53.070Z,99.90
2018-06-01T16:47:20.745Z,99.90
2018-06-01T16:49:48.332Z,99.90
2018-06-01T16:52:15.916Z,99.90
2018-06-01T16:54:43.639Z,99.90
2018-06-01T16:57:11.245Z,99.90
2018-06-01T16:59:38.839Z,99.90
2018-06-01T17:02:06.784Z,99.90
2018-06-01T17:04:34.376Z,99.90
2018-06-01T17:07:01.940Z,99.90
2018-06-01T17:09:30.157Z,99.90
2018-06-01T17:11:58.863Z,99.90
2018-06-01T17:14:27.264Z,99.90
2018-06-01T17:16:54.892Z,99.90
2018-06-01T17:19:22.464Z,99.90
2018-06-01T17:21:50.975Z,99.90
2018-06-01T17:24:18.574Z,99.90
2018-06-01T17:26:46.143Z,99.90
2018-06-01T17:29:13.731Z,99.90
2018-06-01T17:31:41.360Z,99.90
2018-06-01T17:34:08.946Z,99.90
2018-06-01T17:36:37.100Z,99.90
2018-06-01T17:39:05.799Z,99.90
2018-06-01T17:41:33.382Z,99.90
2018-06-01T17:44:00.969Z,99.90
2018-06-01T17:46:28.829Z,99.90
2018-06-01T17:48:56.620Z,99.90
2018-06-01T17:51:24.703Z,99.90
2018-06-01T17:53:52.348Z,99.90
2018-06-01T17:56:19.934Z,99.90
2018-06-01T17:58:47.500Z,99.90
2018-06-01T18:01:15.924Z,99.90
2018-06-01T18:03:43.794Z,99.90
2018-06-01T18:06:11.435Z,99.90
2018-06-01T18:08:39.870Z,99.90
2018-06-01T18:11:07.482Z,99.90
2018-06-01T18:13:35.100Z,99.90
2018-06-01T18:16:02.700Z,99.90
2018-06-01T18:18:30.609Z,99.90
2018-06-01T18:20:58.431Z,99.90
2018-06-01T18:23:27.894Z,99.90
2018-06-01T18:25:56.385Z,99.90
2018-06-01T18:28:25.376Z,99.90
2018-06-01T18:30:53.061Z,99.90
2018-06-01T18:33:20.892Z,99.90
2018-06-01T18:35:48.463Z,99.90
2018-06-01T18:38:17.340Z,99.90
2018-06-01T18:40:45.384Z,99.90
2018-06-01T18:43:13.165Z,99.90
2018-06-01T18:45:40.825Z,99.90
2018-06-01T18:48:08.396Z,99.90
2018-06-01T18:50:35.965Z,99.90
2018-06-01T18:53:03.602Z,99.90
2018-06-01T18:55:31.943Z,99.90
2018-06-01T18:57:59.539Z,99.90
2018-06-01T19:00:27.200Z,99.90
2018-06-01T19:02:54.823Z,99.90
2018-06-01T19:05:22.440Z,99.90
2018-06-01T19:07:50.051Z,99.90
2018-06-01T19:10:17.642Z,99.90
2018-06-01T19:12:45.985Z,99.90
2018-06-01T19:15:13.580Z,99.90
2018-06-01T19:17:41.181Z,99.90
2018-06-01T19:20:09.549Z,99.90
2018-06-01T19:22:37.152Z,99.90
2018-06-01T19:25:05.575Z,99.90
2018-06-01T19:27:33.169Z,99.90
2018-06-01T19:30:00.770Z,99.90
2018-06-01T19:32:28.361Z,99.90
2018-06-01T19:34:56.715Z,99.90
2018-06-01T19:37:24.343Z,99.90
2018-06-01T19:39:51.944Z,99.90
2018-06-01T19:42:19.528Z,99.90
2018-06-01T19:44:47.130Z,99.90
2018-06-01T19:47:14.704Z,99.90
2018-06-01T19:49:42.300Z,99.90
2018-06-01T19:54:38.748Z,99.90
2018-06-01T19:57:06.329Z,99.90
2018-06-01T19:59:33.899Z,99.90
2018-06-01T20:02:01.525Z,99.90
2018-06-01T20:04:29.109Z,99.90
2018-06-01T20:06:56.689Z,99.90
2018-06-01T20:09:24.320Z,99.90
2018-06-01T20:11:51.884Z,99.90
2018-06-01T20:14:20.252Z,99.90
2018-06-01T20:16:47.893Z,99.90
2018-06-01T20:19:15.577Z,99.90
2018-06-01T20:21:43.234Z,99.90
2018-06-01T20:24:10.831Z,99.90
2018-06-01T20:26:38.399Z,99.90
2018-06-01T20:29:06.025Z,99.90
2018-06-01T20:31:33.640Z,99.90
2018-06-01T20:34:01.305Z,99.90
2018-06-01T20:36:28.920Z,99.90
2018-06-01T20:38:56.512Z,99.90
2018-06-01T20:41:24.919Z,99.90
2018-06-01T20:43:52.501Z,99.90
2018-06-01T20:46:20.100Z,99.90
2018-06-01T20:48:47.703Z,99.90
2018-06-01T20:51:16.066Z,99.90
2018-06-01T20:53:43.702Z,99.90
2018-06-01T20:56:11.291Z,99.90
2018-06-01T20:58:38.863Z,99.90
2018-06-01T21:01:06.449Z,99.90
2018-06-01T21:03:44.529Z,99.90
2018-06-01T21:06:12.341Z,99.90
2018-06-01T21:08:40.334Z,99.90
2018-06-01T21:11:09.137Z,99.90
2018-06-01T21:13:37.174Z,99.90
2018-06-01T21:16:05.150Z,99.90
2018-06-01T21:18:32.860Z,99.90
2018-06-01T21:21:00.523Z,99.90
2018-06-01T21:23:28.110Z,99.90
2018-06-01T21:25:55.679Z,99.90
2018-06-01T21:28:23.540Z,99.90
2018-06-01T21:30:52.832Z,99.90
2018-06-01T21:33:21.191Z,99.90
2018-06-01T21:35:48.813Z,99.90
2018-06-01T21:38:16.626Z,99.90
2018-06-01T21:40:44.356Z,99.90
2018-06-01T21:43:11.947Z,99.90
2018-06-01T21:45:40.530Z,99.90
2018-06-01T21:48:08.311Z,99.90
2018-06-01T21:50:36.671Z,99.90
2018-06-01T21:53:04.256Z,99.90
2018-06-01T21:55:32.972Z,99.90
2018-06-01T21:58:01.345Z,99.90
2018-06-01T22:00:28.932Z,99.90
2018-06-01T22:02:56.499Z,99.90
2018-06-01T22:05:24.095Z,99.90
2018-06-01T22:07:52.424Z,99.90
2018-06-01T22:10:19.988Z,99.90
2018-06-01T22:12:47.587Z,99.90
2018-06-01T22:15:15.249Z,99.90
2018-06-01T22:17:42.857Z,99.90
2018-06-01T22:20:10.564Z,99.90
2018-06-01T22:22:39.758Z,99.90
2018-06-01T22:25:08.457Z,99.90
2018-06-01T22:27:36.845Z,99.90
2018-06-01T22:30:05.266Z,99.90
2018-06-01T22:32:32.879Z,99.90
2018-06-01T22:35:00.558Z,99.90
2018-06-01T22:37:28.129Z,99.90
2018-06-01T22:39:55.709Z,99.90
2018-06-01T22:42:23.383Z,99.90
2018-06-01T22:44:50.927Z,99.90
2018-06-01T22:47:18.829Z,99.90
2018-06-01T22:49:46.993Z,99.90
2018-06-01T22:52:14.633Z,99.90
2018-06-01T22:54:42.991Z,99.90
2018-06-01T22:57:10.639Z,99.90
2018-06-01T22:59:38.473Z,99.90
2018-06-01T23:02:06.047Z,99.90
2018-06-01T23:04:33.743Z,99.90
2018-06-01T23:07:01.365Z,99.90
2018-06-01T23:09:28.947Z,99.90
2018-06-01T23:11:56.598Z,99.90
2018-06-01T23:14:24.176Z,99.90
2018-06-01T23:16:51.751Z,99.90
2018-06-01T23:19:19.367Z,99.90
2018-06-01T23:21:47.014Z,99.90
2018-06-01T23:24:14.644Z,99.90
2018-06-01T23:26:42.248Z,99.90
2018-06-01T23:29:09.829Z,99.90
2018-06-01T23:31:37.399Z,99.90
2018-06-01T23:34:04.986Z,99.90
2018-06-01T23:36:32.588Z,99.90
2018-06-01T23:39:00.919Z,99.90
2018-06-01T23:41:28.523Z,99.90
2018-06-01T23:43:56.106Z,99.90
2018-06-01T23:46:23.669Z,99.90
2018-06-01T23:48:51.269Z,99.90
2018-06-01T23:51:19.661Z,99.90
2018-06-01T23:53:48.005Z,99.90
2018-06-01T23:56:15.639Z,99.90
2018-06-01T23:58:43.252Z,99.90
